Bovina, Texas
Current Conditions -  °F | °C
As of 7:55 PM on Friday 21 Nov 2014 (Local Time) from KCVN Reporting Station
Clear Clear  
Wind Chill: 45°   Ceiling: Unl
Heat Index: 45°   Visibility: 10mi
Dew Point: 21°   Wind: 0mph
Humidity: 39%   Direction: NA
Pressure: 29.99"   Gusts: NA
Location:  34.51°N, 102.88°W
Report Text: KCVN 220155Z 00000KT 10SM CLR 07/M06 A2999 RMK AO1
Loading
Personal Weather Stations






























Interactive Weather Map New forecast layout! Learn more

10-Day Weather Forecast

Advertisements
Track Severe Weather on mobile